sensor_id;sensor_type;location;lat;lon;timestamp;pressure;altitude;pressure_sealevel;temperature;humidity
80938;BME280;70395;51.382;7.074;2023-09-07T00:00:15;100824.91;;;18.95;64.31
80938;BME280;70395;51.382;7.074;2023-09-07T00:02:41;100823.56;;;18.90;64.57
80938;BME280;70395;51.382;7.074;2023-09-07T00:05:08;100823.13;;;18.87;64.39
80938;BME280;70395;51.382;7.074;2023-09-07T00:07:34;100827.25;;;18.83;64.52
80938;BME280;70395;51.382;7.074;2023-09-07T00:10:01;100825.91;;;18.78;64.39
80938;BME280;70395;51.382;7.074;2023-09-07T00:12:27;100819.00;;;18.76;64.14
80938;BME280;70395;51.382;7.074;2023-09-07T00:14:57;100814.97;;;18.72;64.56
80938;BME280;70395;51.382;7.074;2023-09-07T00:17:23;100831.47;;;18.70;64.12
80938;BME280;70395;51.382;7.074;2023-09-07T00:19:49;100828.06;;;18.68;64.73
80938;BME280;70395;51.382;7.074;2023-09-07T00:22:17;100818.44;;;18.65;64.52
80938;BME280;70395;51.382;7.074;2023-09-07T00:24:44;100827.41;;;18.66;64.19
80938;BME280;70395;51.382;7.074;2023-09-07T00:27:10;100821.34;;;18.64;65.01
80938;BME280;70395;51.382;7.074;2023-09-07T00:29:38;100821.34;;;18.64;64.76
80938;BME280;70395;51.382;7.074;2023-09-07T00:32:05;100830.69;;;18.61;64.73
80938;BME280;70395;51.382;7.074;2023-09-07T00:34:31;100822.75;;;18.60;64.96
80938;BME280;70395;51.382;7.074;2023-09-07T00:36:57;100825.66;;;18.58;64.44
80938;BME280;70395;51.382;7.074;2023-09-07T00:39:22;100825.19;;;18.54;64.26
80938;BME280;70395;51.382;7.074;2023-09-07T00:41:48;100821.59;;;18.54;64.45
80938;BME280;70395;51.382;7.074;2023-09-07T00:44:14;100827.25;;;18.52;64.42
80938;BME280;70395;51.382;7.074;2023-09-07T00:46:42;100819.09;;;18.52;64.55
80938;BME280;70395;51.382;7.074;2023-09-07T00:49:12;100816.56;;;18.51;64.35
80938;BME280;70395;51.382;7.074;2023-09-07T00:51:38;100822.81;;;18.51;64.49
80938;BME280;70395;51.382;7.074;2023-09-07T00:54:04;100822.00;;;18.51;64.36
80938;BME280;70395;51.382;7.074;2023-09-07T00:56:31;100818.44;;;18.50;64.27
80938;BME280;70395;51.382;7.074;2023-09-07T00:58:58;100819.66;;;18.48;64.20
80938;BME280;70395;51.382;7.074;2023-09-07T01:01:26;100819.81;;;18.46;63.92
80938;BME280;70395;51.382;7.074;2023-09-07T01:03:52;100813.75;;;18.44;64.41
80938;BME280;70395;51.382;7.074;2023-09-07T01:06:26;100810.56;;;18.40;64.17
80938;BME280;70395;51.382;7.074;2023-09-07T01:08:57;100810.72;;;18.39;64.02
80938;BME280;70395;51.382;7.074;2023-09-07T01:11:26;100806.16;;;18.39;64.19
80938;BME280;70395;51.382;7.074;2023-09-07T01:13:52;100800.91;;;18.38;64.18
80938;BME280;70395;51.382;7.074;2023-09-07T01:16:20;100800.91;;;18.38;64.45
80938;BME280;70395;51.382;7.074;2023-09-07T01:18:47;100799.41;;;18.35;63.62
80938;BME280;70395;51.382;7.074;2023-09-07T01:21:14;100795.84;;;18.34;64.19
80938;BME280;70395;51.382;7.074;2023-09-07T01:23:44;100796.06;;;18.33;64.28
80938;BME280;70395;51.382;7.074;2023-09-07T01:26:11;100794.19;;;18.33;63.89
80938;BME280;70395;51.382;7.074;2023-09-07T01:28:38;100793.34;;;18.33;64.20
80938;BME280;70395;51.382;7.074;2023-09-07T01:31:04;100792.28;;;18.34;64.04
80938;BME280;70395;51.382;7.074;2023-09-07T01:33:31;100796.91;;;18.33;63.72
80938;BME280;70395;51.382;7.074;2023-09-07T01:35:57;100793.34;;;18.33;64.17
80938;BME280;70395;51.382;7.074;2023-09-07T01:38:22;100793.34;;;18.33;63.91
80938;BME280;70395;51.382;7.074;2023-09-07T01:40:48;100789.97;;;18.31;63.81
80938;BME280;70395;51.382;7.074;2023-09-07T01:43:14;100797.25;;;18.30;64.29
80938;BME280;70395;51.382;7.074;2023-09-07T01:45:40;100791.19;;;18.28;64.01
80938;BME280;70395;51.382;7.074;2023-09-07T01:48:14;100789.03;;;18.23;64.24
80938;BME280;70395;51.382;7.074;2023-09-07T01:50:40;100789.03;;;18.23;64.51
80938;BME280;70395;51.382;7.074;2023-09-07T01:53:06;100782.91;;;18.21;63.98
80938;BME280;70395;51.382;7.074;2023-09-07T01:55:32;100796.00;;;18.18;64.19
80938;BME280;70395;51.382;7.074;2023-09-07T01:57:58;100797.41;;;18.14;64.45
80938;BME280;70395;51.382;7.074;2023-09-07T02:00:24;100791.28;;;18.11;64.40
80938;BME280;70395;51.382;7.074;2023-09-07T02:02:50;100796.91;;;18.10;64.42
80938;BME280;70395;51.382;7.074;2023-09-07T02:05:16;100790.81;;;18.08;64.79
80938;BME280;70395;51.382;7.074;2023-09-07T02:07:43;100782.03;;;18.06;64.45
80938;BME280;70395;51.382;7.074;2023-09-07T02:10:09;100789.31;;;18.05;65.12
80938;BME280;70395;51.382;7.074;2023-09-07T02:12:36;100788.88;;;18.01;65.24
80938;BME280;70395;51.382;7.074;2023-09-07T02:15:04;100779.56;;;17.96;64.78
80938;BME280;70395;51.382;7.074;2023-09-07T02:17:30;100774.50;;;17.93;65.11
80938;BME280;70395;51.382;7.074;2023-09-07T02:19:57;100783.19;;;17.88;65.63
80938;BME280;70395;51.382;7.074;2023-09-07T02:22:23;100778.31;;;17.83;65.64
80938;BME280;70395;51.382;7.074;2023-09-07T02:24:49;100780.53;;;17.79;65.42
80938;BME280;70395;51.382;7.074;2023-09-07T02:27:15;100781.09;;;17.75;65.03
80938;BME280;70395;51.382;7.074;2023-09-07T02:29:41;100774.34;;;17.71;64.99
80938;BME280;70395;51.382;7.074;2023-09-07T02:32:07;100774.72;;;17.67;65.62
80938;BME280;70395;51.382;7.074;2023-09-07T02:34:34;100780.53;;;17.64;65.60
80938;BME280;70395;51.382;7.074;2023-09-07T02:37:02;100780.22;;;17.59;65.45
80938;BME280;70395;51.382;7.074;2023-09-07T02:39:29;100777.00;;;17.55;65.90
80938;BME280;70395;51.382;7.074;2023-09-07T02:41:54;100778.03;;;17.54;65.43
80938;BME280;70395;51.382;7.074;2023-09-07T02:44:20;100776.69;;;17.50;66.11
80938;BME280;70395;51.382;7.074;2023-09-07T02:46:46;100781.47;;;17.48;65.74
80938;BME280;70395;51.382;7.074;2023-09-07T02:49:12;100785.38;;;17.45;65.70
80938;BME280;70395;51.382;7.074;2023-09-07T02:51:38;100785.75;;;17.42;65.49
80938;BME280;70395;51.382;7.074;2023-09-07T02:54:05;100780.84;;;17.38;65.71
80938;BME280;70395;51.382;7.074;2023-09-07T02:56:31;100778.31;;;17.36;66.03
80938;BME280;70395;51.382;7.074;2023-09-07T02:58:57;100776.66;;;17.35;65.99
80938;BME280;70395;51.382;7.074;2023-09-07T03:01:23;100777.66;;;17.34;65.89
80938;BME280;70395;51.382;7.074;2023-09-07T03:03:49;100784.09;;;17.33;65.76
80938;BME280;70395;51.382;7.074;2023-09-07T03:06:15;100779.88;;;17.30;65.36
80938;BME280;70395;51.382;7.074;2023-09-07T03:08:44;100774.47;;;17.30;65.87
80938;BME280;70395;51.382;7.074;2023-09-07T03:11:11;100773.63;;;17.30;65.39
80938;BME280;70395;51.382;7.074;2023-09-07T03:13:37;100775.50;;;17.29;65.68
80938;BME280;70395;51.382;7.074;2023-09-07T03:16:04;100765.84;;;17.27;65.51
80938;BME280;70395;51.382;7.074;2023-09-07T03:18:31;100767.72;;;17.26;65.76
80938;BME280;70395;51.382;7.074;2023-09-07T03:21:01;100765.34;;;17.23;65.38
80938;BME280;70395;51.382;7.074;2023-09-07T03:23:32;100774.53;;;17.22;65.23
80938;BME280;70395;51.382;7.074;2023-09-07T03:25:59;100767.25;;;17.22;65.67
80938;BME280;70395;51.382;7.074;2023-09-07T03:28:26;100770.13;;;17.21;65.52
80938;BME280;70395;51.382;7.074;2023-09-07T03:30:53;100772.16;;;17.19;65.68
80938;BME280;70395;51.382;7.074;2023-09-07T03:33:19;100761.31;;;17.19;65.47
80938;BME280;70395;51.382;7.074;2023-09-07T03:35:45;100767.94;;;17.16;65.29
80938;BME280;70395;51.382;7.074;2023-09-07T03:38:11;100772.50;;;17.16;65.41
80938;BME280;70395;51.382;7.074;2023-09-07T03:40:37;100763.69;;;17.14;65.57
80938;BME280;70395;51.382;7.074;2023-09-07T03:43:03;100765.56;;;17.13;65.64
80938;BME280;70395;51.382;7.074;2023-09-07T03:45:29;100768.44;;;17.11;65.30
80938;BME280;70395;51.382;7.074;2023-09-07T03:47:56;100765.75;;;17.11;65.04
80938;BME280;70395;51.382;7.074;2023-09-07T03:50:22;100772.19;;;17.10;65.38
80938;BME280;70395;51.382;7.074;2023-09-07T03:52:47;100772.34;;;17.09;65.18
80938;BME280;70395;51.382;7.074;2023-09-07T03:55:14;100771.50;;;17.08;64.97
80938;BME280;70395;51.382;7.074;2023-09-07T03:57:40;100777.97;;;17.07;65.55
80938;BME280;70395;51.382;7.074;2023-09-07T04:00:07;100769.34;;;17.04;65.30
80938;BME280;70395;51.382;7.074;2023-09-07T04:02:33;100771.38;;;17.02;65.24
80938;BME280;70395;51.382;7.074;2023-09-07T04:04:59;100777.66;;;17.02;65.58
80938;BME280;70395;51.382;7.074;2023-09-07T04:07:28;100773.44;;;16.99;65.09
80938;BME280;70395;51.382;7.074;2023-09-07T04:09:53;100779.84;;;16.98;65.30
80938;BME280;70395;51.382;7.074;2023-09-07T04:12:19;100774.44;;;16.98;65.89
80938;BME280;70395;51.382;7.074;2023-09-07T04:14:45;100776.47;;;16.96;65.62
80938;BME280;70395;51.382;7.074;2023-09-07T04:17:14;100766.03;;;16.93;65.41
80938;BME280;70395;51.382;7.074;2023-09-07T04:19:39;100777.69;;;16.94;65.99
80938;BME280;70395;51.382;7.074;2023-09-07T04:22:05;100777.00;;;16.92;65.81
80938;BME280;70395;51.382;7.074;2023-09-07T04:24:31;100786.34;;;16.89;66.02
80938;BME280;70395;51.382;7.074;2023-09-07T04:27:01;100776.22;;;16.83;65.52
80938;BME280;70395;51.382;7.074;2023-09-07T04:29:27;100780.97;;;16.81;66.26
80938;BME280;70395;51.382;7.074;2023-09-07T04:31:54;100784.03;;;16.77;66.04
80938;BME280;70395;51.382;7.074;2023-09-07T04:34:21;100779.97;;;16.73;65.60
80938;BME280;70395;51.382;7.074;2023-09-07T04:36:47;100781.00;;;16.72;65.71
80938;BME280;70395;51.382;7.074;2023-09-07T04:39:13;100784.88;;;16.70;65.88
80938;BME280;70395;51.382;7.074;2023-09-07T04:41:40;100788.63;;;16.69;66.03
80938;BME280;70395;51.382;7.074;2023-09-07T04:44:06;100788.78;;;16.67;65.54
80938;BME280;70395;51.382;7.074;2023-09-07T04:46:32;100791.00;;;16.63;66.25
80938;BME280;70395;51.382;7.074;2023-09-07T04:48:58;100783.22;;;16.60;65.97
80938;BME280;70395;51.382;7.074;2023-09-07T04:51:23;100787.31;;;16.56;66.22
80938;BME280;70395;51.382;7.074;2023-09-07T04:53:51;100788.31;;;16.55;66.45
80938;BME280;70395;51.382;7.074;2023-09-07T04:56:17;100789.34;;;16.54;66.47
80938;BME280;70395;51.382;7.074;2023-09-07T04:58:43;100785.13;;;16.51;66.52
80938;BME280;70395;51.382;7.074;2023-09-07T05:01:10;100789.03;;;16.49;66.14
80938;BME280;70395;51.382;7.074;2023-09-07T05:03:37;100783.78;;;16.47;65.99
80938;BME280;70395;51.382;7.074;2023-09-07T05:06:06;100790.22;;;16.46;66.64
80938;BME280;70395;51.382;7.074;2023-09-07T05:08:32;100787.66;;;16.44;66.36
80938;BME280;70395;51.382;7.074;2023-09-07T05:11:03;100783.28;;;16.43;65.82
80938;BME280;70395;51.382;7.074;2023-09-07T05:13:29;100786.00;;;16.43;66.04
80938;BME280;70395;51.382;7.074;2023-09-07T05:15:59;100794.13;;;16.43;65.82
80938;BME280;70395;51.382;7.074;2023-09-07T05:18:26;100791.41;;;16.43;66.29
80938;BME280;70395;51.382;7.074;2023-09-07T05:20:52;100788.69;;;16.43;66.52
80938;BME280;70395;51.382;7.074;2023-09-07T05:23:20;100787.50;;;16.46;66.57
80938;BME280;70395;51.382;7.074;2023-09-07T05:25:52;100796.28;;;16.48;66.91
80938;BME280;70395;51.382;7.074;2023-09-07T05:28:19;100791.38;;;16.52;66.47
80938;BME280;70395;51.382;7.074;2023-09-07T05:30:45;100796.44;;;16.55;66.35
80938;BME280;70395;51.382;7.074;2023-09-07T05:33:15;100793.22;;;16.60;66.79
80938;BME280;70395;51.382;7.074;2023-09-07T05:35:41;100793.72;;;16.63;66.86
80938;BME280;70395;51.382;7.074;2023-09-07T05:38:11;100800.66;;;16.66;66.89
80938;BME280;70395;51.382;7.074;2023-09-07T05:40:42;100799.09;;;16.72;66.35
80938;BME280;70395;51.382;7.074;2023-09-07T05:43:08;100799.25;;;16.79;66.44
80938;BME280;70395;51.382;7.074;2023-09-07T05:45:40;100806.00;;;16.83;66.31
80938;BME280;70395;51.382;7.074;2023-09-07T05:48:07;100807.66;;;16.92;66.00
80938;BME280;70395;51.382;7.074;2023-09-07T05:50:38;100810.34;;;17.00;66.40
80938;BME280;70395;51.382;7.074;2023-09-07T05:53:04;100814.69;;;17.10;66.23
80938;BME280;70395;51.382;7.074;2023-09-07T05:55:31;100814.50;;;17.20;66.13
80938;BME280;70395;51.382;7.074;2023-09-07T05:57:57;100815.28;;;17.29;65.51
80938;BME280;70395;51.382;7.074;2023-09-07T06:00:23;100813.38;;;17.38;65.59
80938;BME280;70395;51.382;7.074;2023-09-07T06:02:50;100804.19;;;17.47;65.08
80938;BME280;70395;51.382;7.074;2023-09-07T06:05:17;100810.38;;;17.56;65.08
80938;BME280;70395;51.382;7.074;2023-09-07T06:07:43;100813.06;;;17.64;65.09
80938;BME280;70395;51.382;7.074;2023-09-07T06:10:10;100816.53;;;17.73;64.80
80938;BME280;70395;51.382;7.074;2023-09-07T06:12:36;100808.34;;;17.82;64.45
80938;BME280;70395;51.382;7.074;2023-09-07T06:15:02;100806.41;;;17.90;65.23
80938;BME280;70395;51.382;7.074;2023-09-07T06:17:29;100804.44;;;17.99;65.14
80938;BME280;70395;51.382;7.074;2023-09-07T06:19:55;100812.34;;;18.09;64.58
80938;BME280;70395;51.382;7.074;2023-09-07T06:22:21;100815.69;;;18.20;64.29
80938;BME280;70395;51.382;7.074;2023-09-07T06:24:47;100815.22;;;18.31;64.36
80938;BME280;70395;51.382;7.074;2023-09-07T06:27:14;100816.66;;;18.42;64.37
80938;BME280;70395;51.382;7.074;2023-09-07T06:29:39;100813.28;;;18.55;63.98
80938;BME280;70395;51.382;7.074;2023-09-07T06:32:05;100808.31;;;18.74;63.44
80938;BME280;70395;51.382;7.074;2023-09-07T06:34:32;100810.34;;;19.02;63.33
80938;BME280;70395;51.382;7.074;2023-09-07T06:36:58;100820.22;;;19.41;62.67
80938;BME280;70395;51.382;7.074;2023-09-07T06:39:24;100814.81;;;19.85;61.97
80938;BME280;70395;51.382;7.074;2023-09-07T06:41:50;100825.91;;;20.34;61.80
80938;BME280;70395;51.382;7.074;2023-09-07T06:44:16;100834.59;;;20.87;60.73
80938;BME280;70395;51.382;7.074;2023-09-07T06:46:41;100832.72;;;21.36;59.90
80938;BME280;70395;51.382;7.074;2023-09-07T06:49:07;100834.34;;;21.87;59.12
80938;BME280;70395;51.382;7.074;2023-09-07T06:51:33;100841.22;;;22.37;58.04
80938;BME280;70395;51.382;7.074;2023-09-07T06:53:59;100835.91;;;22.90;57.72
80938;BME280;70395;51.382;7.074;2023-09-07T06:56:25;100835.44;;;23.46;56.81
80938;BME280;70395;51.382;7.074;2023-09-07T06:58:52;100835.94;;;24.01;55.42
80938;BME280;70395;51.382;7.074;2023-09-07T07:01:19;100837.97;;;24.57;54.47
80938;BME280;70395;51.382;7.074;2023-09-07T07:03:45;100842.88;;;25.11;53.11
80938;BME280;70395;51.382;7.074;2023-09-07T07:06:11;100844.38;;;25.69;52.17
80938;BME280;70395;51.382;7.074;2023-09-07T07:08:37;100844.38;;;26.24;51.23
80938;BME280;70395;51.382;7.074;2023-09-07T07:11:02;100856.56;;;26.76;49.70
80938;BME280;70395;51.382;7.074;2023-09-07T07:13:28;100857.63;;;27.28;49.04
80938;BME280;70395;51.382;7.074;2023-09-07T07:15:55;100849.75;;;27.79;48.08
80938;BME280;70395;51.382;7.074;2023-09-07T07:18:20;100852.16;;;28.27;47.16
80938;BME280;70395;51.382;7.074;2023-09-07T07:20:46;100860.53;;;28.72;46.63
80938;BME280;70395;51.382;7.074;2023-09-07T07:23:12;100855.56;;;29.14;45.68
80938;BME280;70395;51.382;7.074;2023-09-07T07:25:38;100859.59;;;29.56;45.18
80938;BME280;70395;51.382;7.074;2023-09-07T07:28:05;100853.34;;;29.99;44.35
80938;BME280;70395;51.382;7.074;2023-09-07T07:32:58;100858.25;;;30.73;42.68
80938;BME280;70395;51.382;7.074;2023-09-07T07:35:24;100850.94;;;31.05;42.39
80938;BME280;70395;51.382;7.074;2023-09-07T07:37:50;100854.38;;;31.39;40.82
80938;BME280;70395;51.382;7.074;2023-09-07T07:40:17;100852.50;;;31.71;40.45
80938;BME280;70395;51.382;7.074;2023-09-07T07:42:47;100852.19;;;32.03;39.60
80938;BME280;70395;51.382;7.074;2023-09-07T07:45:14;100842.19;;;32.39;39.45
80938;BME280;70395;51.382;7.074;2023-09-07T07:47:41;100848.19;;;32.78;38.63
80938;BME280;70395;51.382;7.074;2023-09-07T07:50:08;100844.69;;;33.12;38.42
80938;BME280;70395;51.382;7.074;2023-09-07T07:52:33;100846.19;;;33.40;37.86
80938;BME280;70395;51.382;7.074;2023-09-07T07:55:00;100843.25;;;33.60;37.44
80938;BME280;70395;51.382;7.074;2023-09-07T07:57:26;100852.03;;;33.78;37.15
80938;BME280;70395;51.382;7.074;2023-09-07T07:59:52;100851.88;;;33.99;36.98
80938;BME280;70395;51.382;7.074;2023-09-07T08:02:17;100848.28;;;34.23;36.88
80938;BME280;70395;51.382;7.074;2023-09-07T08:04:43;100844.72;;;34.47;36.19
80938;BME280;70395;51.382;7.074;2023-09-07T08:07:09;100846.59;;;34.77;35.57
80938;BME280;70395;51.382;7.074;2023-09-07T08:09:36;100847.84;;;35.09;34.41
80938;BME280;70395;51.382;7.074;2023-09-07T08:12:02;100841.63;;;35.37;34.25
80938;BME280;70395;51.382;7.074;2023-09-07T08:14:29;100843.16;;;35.63;33.90
80938;BME280;70395;51.382;7.074;2023-09-07T08:16:56;100842.28;;;35.81;31.48
80938;BME280;70395;51.382;7.074;2023-09-07T08:19:22;100841.84;;;35.93;32.43
80938;BME280;70395;51.382;7.074;2023-09-07T08:21:47;100831.88;;;36.21;31.70
80938;BME280;70395;51.382;7.074;2023-09-07T08:24:13;100835.09;;;36.56;31.13
80938;BME280;70395;51.382;7.074;2023-09-07T08:26:39;100843.44;;;36.99;30.55
80938;BME280;70395;51.382;7.074;2023-09-07T08:29:06;100843.03;;;37.28;29.66
80938;BME280;70395;51.382;7.074;2023-09-07T08:31:33;100838.97;;;37.35;28.44
80938;BME280;70395;51.382;7.074;2023-09-07T08:34:04;100842.00;;;37.38;28.62
80938;BME280;70395;51.382;7.074;2023-09-07T08:36:30;100835.50;;;37.52;28.35
80938;BME280;70395;51.382;7.074;2023-09-07T08:39:03;100837.00;;;37.81;27.78
80938;BME280;70395;51.382;7.074;2023-09-07T08:41:44;100837.56;;;38.24;27.28
80938;BME280;70395;51.382;7.074;2023-09-07T08:44:11;100835.53;;;38.57;26.54
80938;BME280;70395;51.382;7.074;2023-09-07T08:46:38;100833.09;;;38.64;25.41
80938;BME280;70395;51.382;7.074;2023-09-07T08:49:04;100828.31;;;38.56;25.63
80938;BME280;70395;51.382;7.074;2023-09-07T08:51:30;100830.56;;;38.45;25.58
80938;BME280;70395;51.382;7.074;2023-09-07T08:54:00;100829.91;;;38.39;25.13
80938;BME280;70395;51.382;7.074;2023-09-07T08:56:26;100828.28;;;38.47;24.99
80938;BME280;70395;51.382;7.074;2023-09-07T08:58:52;100831.78;;;38.70;25.29
80938;BME280;70395;51.382;7.074;2023-09-07T09:01:18;100818.66;;;38.97;24.63
80938;BME280;70395;51.382;7.074;2023-09-07T09:03:51;100836.16;;;39.39;24.59
80938;BME280;70395;51.382;7.074;2023-09-07T09:06:19;100828.16;;;39.94;24.40
80938;BME280;70395;51.382;7.074;2023-09-07T09:08:57;100836.78;;;40.28;23.42
80938;BME280;70395;51.382;7.074;2023-09-07T09:11:24;100815.03;;;40.47;22.74
80938;BME280;70395;51.382;7.074;2023-09-07T09:13:52;100828.41;;;40.80;23.23
80938;BME280;70395;51.382;7.074;2023-09-07T09:16:21;100827.81;;;41.30;21.83
80938;BME280;70395;51.382;7.074;2023-09-07T09:18:50;100825.28;;;41.59;21.88
80938;BME280;70395;51.382;7.074;2023-09-07T09:21:23;100824.44;;;42.05;21.93
80938;BME280;70395;51.382;7.074;2023-09-07T09:23:55;100824.19;;;42.48;20.90
80938;BME280;70395;51.382;7.074;2023-09-07T09:26:22;100817.84;;;42.63;20.20
80938;BME280;70395;51.382;7.074;2023-09-07T09:28:49;100817.25;;;42.58;20.30
80938;BME280;70395;51.382;7.074;2023-09-07T09:31:18;100812.53;;;42.74;20.70
80938;BME280;70395;51.382;7.074;2023-09-07T09:33:49;100805.47;;;42.81;19.99
80938;BME280;70395;51.382;7.074;2023-09-07T09:36:19;100809.91;;;42.94;19.54
80938;BME280;70395;51.382;7.074;2023-09-07T09:38:49;100808.69;;;43.08;19.70
80938;BME280;70395;51.382;7.074;2023-09-07T09:41:17;100806.69;;;43.37;19.46
80938;BME280;70395;51.382;7.074;2023-09-07T09:43:45;100803.47;;;43.67;18.81
80938;BME280;70395;51.382;7.074;2023-09-07T09:46:15;100808.50;;;43.74;18.28
80938;BME280;70395;51.382;7.074;2023-09-07T09:48:42;100802.06;;;43.61;19.24
80938;BME280;70395;51.382;7.074;2023-09-07T09:51:08;100796.81;;;43.76;18.52
80938;BME280;70395;51.382;7.074;2023-09-07T09:53:35;100802.75;;;43.87;18.89
80938;BME280;70395;51.382;7.074;2023-09-07T09:56:02;100798.00;;;44.24;18.35
80938;BME280;70395;51.382;7.074;2023-09-07T09:58:27;100793.94;;;44.41;18.25
80938;BME280;70395;51.382;7.074;2023-09-07T10:00:57;100789.34;;;44.69;17.24
80938;BME280;70395;51.382;7.074;2023-09-07T10:03:31;100789.41;;;44.92;17.19
80938;BME280;70395;51.382;7.074;2023-09-07T10:06:22;100783.53;;;44.61;17.28
80938;BME280;70395;51.382;7.074;2023-09-07T10:09:04;100784.66;;;44.40;17.86
80938;BME280;70395;51.382;7.074;2023-09-07T10:11:37;100790.56;;;44.51;17.52
80938;BME280;70395;51.382;7.074;2023-09-07T10:14:05;100784.56;;;44.73;17.29
80938;BME280;70395;51.382;7.074;2023-09-07T10:16:49;100785.25;;;44.86;17.41
80938;BME280;70395;51.382;7.074;2023-09-07T10:19:23;100786.28;;;45.17;16.92
80938;BME280;70395;51.382;7.074;2023-09-07T10:21:52;100773.19;;;45.52;16.33
80938;BME280;70395;51.382;7.074;2023-09-07T10:24:31;100770.72;;;45.51;15.71
80938;BME280;70395;51.382;7.074;2023-09-07T10:27:08;100773.09;;;45.25;15.48
80938;BME280;70395;51.382;7.074;2023-09-07T10:29:46;100779.53;;;45.02;16.05
80938;BME280;70395;51.382;7.074;2023-09-07T10:32:15;100767.91;;;45.07;15.86
80938;BME280;70395;51.382;7.074;2023-09-07T10:34:42;100782.94;;;45.11;15.75
80938;BME280;70395;51.382;7.074;2023-09-07T10:37:14;100771.75;;;45.19;15.88
80938;BME280;70395;51.382;7.074;2023-09-07T10:39:43;100764.47;;;45.38;15.72
80938;BME280;70395;51.382;7.074;2023-09-07T10:42:23;100760.41;;;45.39;15.73
80938;BME280;70395;51.382;7.074;2023-09-07T10:44:50;100755.19;;;45.41;15.27
80938;BME280;70395;51.382;7.074;2023-09-07T10:47:16;100759.06;;;45.32;15.43
80938;BME280;70395;51.382;7.074;2023-09-07T10:49:42;100750.06;;;45.27;15.33
80938;BME280;70395;51.382;7.074;2023-09-07T10:52:08;100752.31;;;45.37;15.22
80938;BME280;70395;51.382;7.074;2023-09-07T10:54:34;100751.66;;;45.24;15.36
80938;BME280;70395;51.382;7.074;2023-09-07T10:57:09;100748.06;;;45.27;15.63
80938;BME280;70395;51.382;7.074;2023-09-07T10:59:36;100744.16;;;45.36;15.37
80938;BME280;70395;51.382;7.074;2023-09-07T11:02:05;100736.41;;;45.52;14.96
80938;BME280;70395;51.382;7.074;2023-09-07T11:04:31;100741.31;;;45.79;14.71
80938;BME280;70395;51.382;7.074;2023-09-07T11:06:57;100730.53;;;45.88;14.41
80938;BME280;70395;51.382;7.074;2023-09-07T11:09:23;100735.75;;;46.14;14.95
80938;BME280;70395;51.382;7.074;2023-09-07T11:11:50;100724.56;;;46.55;14.43
80938;BME280;70395;51.382;7.074;2023-09-07T11:14:15;100740.72;;;46.86;13.99
80938;BME280;70395;51.382;7.074;2023-09-07T11:16:41;100738.22;;;46.81;14.18
80938;BME280;70395;51.382;7.074;2023-09-07T11:19:08;100731.63;;;46.69;13.94
80938;BME280;70395;51.382;7.074;2023-09-07T11:21:35;100740.19;;;46.73;14.36
80938;BME280;70395;51.382;7.074;2023-09-07T11:24:02;100733.03;;;46.86;13.99
80938;BME280;70395;51.382;7.074;2023-09-07T11:26:44;100725.66;;;47.16;13.63
80938;BME280;70395;51.382;7.074;2023-09-07T11:29:15;100730.53;;;47.61;13.55
80938;BME280;70395;51.382;7.074;2023-09-07T11:31:41;100723.84;;;47.91;13.75
80938;BME280;70395;51.382;7.074;2023-09-07T11:34:11;100724.31;;;48.01;13.63
80938;BME280;70395;51.382;7.074;2023-09-07T11:36:39;100729.66;;;48.10;12.87
80938;BME280;70395;51.382;7.074;2023-09-07T11:39:05;100731.59;;;47.95;13.29
80938;BME280;70395;51.382;7.074;2023-09-07T11:41:42;100731.22;;;48.00;13.36
80938;BME280;70395;51.382;7.074;2023-09-07T11:44:09;100720.41;;;48.20;13.69
80938;BME280;70395;51.382;7.074;2023-09-07T11:46:36;100711.56;;;48.44;13.14
80938;BME280;70395;51.382;7.074;2023-09-07T11:49:02;100720.59;;;48.68;12.85
80938;BME280;70395;51.382;7.074;2023-09-07T11:51:30;100717.78;;;48.79;13.06
80938;BME280;70395;51.382;7.074;2023-09-07T11:53:56;100710.88;;;48.87;12.75
80938;BME280;70395;51.382;7.074;2023-09-07T11:56:22;100711.25;;;48.75;12.29
80938;BME280;70395;51.382;7.074;2023-09-07T11:58:48;100707.09;;;48.50;12.78
80938;BME280;70395;51.382;7.074;2023-09-07T12:01:13;100703.81;;;48.37;12.55
80938;BME280;70395;51.382;7.074;2023-09-07T12:03:42;100707.06;;;48.32;13.08
80938;BME280;70395;51.382;7.074;2023-09-07T12:06:08;100708.63;;;48.26;12.69
80938;BME280;70395;51.382;7.074;2023-09-07T12:08:36;100708.94;;;48.06;12.86
80938;BME280;70395;51.382;7.074;2023-09-07T12:11:01;100703.13;;;47.84;12.48
80938;BME280;70395;51.382;7.074;2023-09-07T12:13:27;100705.31;;;47.49;12.68
80938;BME280;70395;51.382;7.074;2023-09-07T12:15:53;100701.59;;;47.44;13.16
80938;BME280;70395;51.382;7.074;2023-09-07T12:18:19;100697.19;;;47.51;12.90
80938;BME280;70395;51.382;7.074;2023-09-07T12:20:45;100699.31;;;47.65;13.50
80938;BME280;70395;51.382;7.074;2023-09-07T12:23:10;100698.16;;;47.73;12.83
80938;BME280;70395;51.382;7.074;2023-09-07T12:25:36;100691.09;;;47.49;13.01
80938;BME280;70395;51.382;7.074;2023-09-07T12:28:03;100691.06;;;47.41;13.23
80938;BME280;70395;51.382;7.074;2023-09-07T12:30:29;100682.69;;;47.67;12.60
80938;BME280;70395;51.382;7.074;2023-09-07T12:32:54;100688.69;;;47.51;13.06
80938;BME280;70395;51.382;7.074;2023-09-07T12:35:20;100683.75;;;47.40;14.02
80938;BME280;70395;51.382;7.074;2023-09-07T12:37:47;100681.41;;;47.57;14.23
80938;BME280;70395;51.382;7.074;2023-09-07T12:40:13;100681.41;;;47.57;13.77
80938;BME280;70395;51.382;7.074;2023-09-07T12:42:41;100675.72;;;47.53;13.78
80938;BME280;70395;51.382;7.074;2023-09-07T12:45:11;100675.63;;;47.42;14.25
80938;BME280;70395;51.382;7.074;2023-09-07T12:47:39;100672.91;;;47.57;13.57
80938;BME280;70395;51.382;7.074;2023-09-07T12:50:05;100673.94;;;47.87;14.04
80938;BME280;70395;51.382;7.074;2023-09-07T12:52:33;100671.25;;;48.16;13.40